Time;durP1;ratioP1;P1;durP2;ratioP2;P2;SDS_P1;SDS_P2;PMS_P1;PMS_P2;Temp;Humidity;BMP_temperature;BMP_pressure;BME280_temperature;BME280_humidity;BME280_pressure;Samples;Min_cycle;Max_cycle;Signal;HPM_P1;HPM_P2
2022/02/22 00:00:20;;;;;;;10.68;1.60;;;;;;;5.80;100.00;99734.13;5223711;28;20021;-82
2022/02/22 00:02:50;;;;;;;12.00;2.30;;;;;;;5.82;100.00;99736.66;5223276;28;20052;-82
2022/02/22 00:05:21;;;;;;;13.38;2.05;;;;;;;5.81;100.00;99738.44;5224786;28;20040;-82
2022/02/22 00:07:51;;;;;;;18.77;2.60;;;;;;;5.77;100.00;99739.34;5223633;28;20033;-82
2022/02/22 00:10:22;;;;;;;10.50;1.95;;;;;;;5.77;100.00;99752.31;5222859;28;20107;-82
2022/02/22 00:12:53;;;;;;;11.35;1.55;;;;;;;5.76;100.00;99758.38;5228887;28;20402;-82
2022/02/22 00:15:24;;;;;;;17.70;1.75;;;;;;;5.79;100.00;99768.72;5231380;28;20025;-82
2022/02/22 00:17:54;;;;;;;12.00;1.80;;;;;;;5.78;100.00;99763.53;5231162;28;20033;-82
2022/02/22 00:20:24;;;;;;;11.63;1.92;;;;;;;5.81;100.00;99786.81;5231173;28;20048;-82
2022/02/22 00:22:55;;;;;;;12.48;1.73;;;;;;;5.80;100.00;99783.38;5229996;28;20137;-81
2022/02/22 00:25:25;;;;;;;12.43;1.77;;;;;;;5.80;100.00;99805.84;5225577;28;20530;-82
2022/02/22 00:27:55;;;;;;;14.32;2.03;;;;;;;5.80;100.00;99803.25;5229747;28;20028;-82
2022/02/22 00:30:26;;;;;;;10.02;1.92;;;;;;;5.74;100.00;99804.25;5227369;28;20083;-82
2022/02/22 00:32:56;;;;;;;11.65;1.63;;;;;;;5.76;100.00;99814.59;5226399;28;20055;-81
2022/02/22 00:35:26;;;;;;;8.40;1.40;;;;;;;5.76;100.00;99823.19;5228823;28;20029;-82
2022/02/22 00:37:57;;;;;;;12.10;1.75;;;;;;;5.73;100.00;99823.28;5227396;28;20451;-82
2022/02/22 00:40:27;;;;;;;7.05;1.35;;;;;;;5.71;100.00;99829.44;5230205;28;20214;-82
2022/02/22 00:42:57;;;;;;;9.95;1.50;;;;;;;5.69;100.00;99844.16;5226519;28;20174;-82
2022/02/22 00:45:28;;;;;;;16.13;1.55;;;;;;;5.62;100.00;99845.22;5230091;28;20067;-82
2022/02/22 00:47:58;;;;;;;11.70;1.73;;;;;;;5.65;100.00;99866.72;5223447;28;20032;-82
2022/02/22 00:50:28;;;;;;;14.57;1.63;;;;;;;5.62;100.00;99876.31;5222839;28;20110;-81
2022/02/22 00:52:59;;;;;;;11.10;1.80;;;;;;;5.67;100.00;99877.03;5223069;28;20053;-81
2022/02/22 00:55:29;;;;;;;11.13;1.85;;;;;;;5.65;100.00;99877.09;5223705;28;20021;-81
2022/02/22 00:57:59;;;;;;;14.82;1.90;;;;;;;5.63;100.00;99883.19;5220758;28;20028;-81
2022/02/22 01:00:29;;;;;;;12.00;1.90;;;;;;;5.61;100.00;99883.22;5223407;28;20040;-81
2022/02/22 01:03:00;;;;;;;17.33;2.08;;;;;;;5.57;100.00;99891.97;5222314;28;20037;-81
2022/02/22 01:05:30;;;;;;;10.82;1.83;;;;;;;5.57;100.00;99909.28;5223580;28;20124;-81
2022/02/22 01:08:02;;;;;;;14.20;2.25;;;;;;;5.60;100.00;99916.97;5223364;28;20025;-81
2022/02/22 01:10:32;;;;;;;15.68;2.05;;;;;;;5.64;100.00;99927.22;5222591;28;20025;-81
2022/02/22 01:13:03;;;;;;;21.33;2.10;;;;;;;5.65;100.00;99938.44;5222596;28;20557;-81
2022/02/22 01:15:33;;;;;;;18.98;2.20;;;;;;;5.65;100.00;99941.03;5221525;28;20394;-81
2022/02/22 01:18:03;;;;;;;21.02;2.60;;;;;;;5.63;100.00;99955.78;5222588;28;20422;-81
2022/02/22 01:20:34;;;;;;;21.38;2.72;;;;;;;5.67;100.00;99957.38;5222666;28;20021;-81
2022/02/22 01:23:04;;;;;;;17.48;1.85;;;;;;;5.66;100.00;99971.22;5213488;28;20039;-81
2022/02/22 01:25:34;;;;;;;17.60;2.67;;;;;;;5.65;100.00;99985.09;5220918;28;20475;-81
2022/02/22 01:28:05;;;;;;;16.08;2.13;;;;;;;5.64;100.00;99994.63;5219409;28;20039;-81
2022/02/22 01:30:35;;;;;;;13.43;2.03;;;;;;;5.63;100.00;99997.22;5221268;28;20033;-81
2022/02/22 01:33:05;;;;;;;22.05;3.00;;;;;;;5.62;100.00;100000.72;5221683;28;20029;-81
2022/02/22 01:35:36;;;;;;;18.58;2.10;;;;;;;5.60;100.00;99997.31;5222308;28;20060;-81
2022/02/22 01:38:06;;;;;;;21.88;2.58;;;;;;;5.62;100.00;100003.31;5221788;28;20017;-81
2022/02/22 01:40:36;;;;;;;18.90;2.78;;;;;;;5.57;100.00;100008.59;5221269;28;20032;-81
2022/02/22 01:43:07;;;;;;;19.48;2.72;;;;;;;5.57;100.00;100000.00;5221552;28;20123;-81
2022/02/22 01:45:37;;;;;;;20.90;2.85;;;;;;;5.55;100.00;100014.72;5222131;28;20051;-81
2022/02/22 01:48:07;;;;;;;23.50;3.00;;;;;;;5.54;100.00;100020.81;5222529;28;20029;-81
2022/02/22 01:50:38;;;;;;;25.17;3.00;;;;;;;5.45;100.00;100033.97;5222004;28;20399;-81
2022/02/22 01:53:09;;;;;;;18.92;3.30;;;;;;;5.49;100.00;100043.34;5221767;28;20025;-81
2022/02/22 01:55:39;;;;;;;31.13;3.60;;;;;;;5.45;100.00;100046.91;5221841;28;20051;-81
2022/02/22 01:58:09;;;;;;;24.80;3.10;;;;;;;5.42;100.00;100039.22;5219427;28;20025;-81
2022/02/22 02:00:43;;;;;;;21.17;2.72;;;;;;;5.42;100.00;100049.59;5221715;28;20477;-81
2022/02/22 02:03:14;;;;;;;19.00;3.00;;;;;;;5.41;100.00;100051.31;5219198;28;20025;-81
2022/02/22 02:05:45;;;;;;;21.55;3.15;;;;;;;5.35;100.00;100063.53;5221528;28;20474;-82
2022/02/22 02:08:16;;;;;;;24.73;3.28;;;;;;;5.30;100.00;100065.41;5220400;28;20041;-81
2022/02/22 02:10:46;;;;;;;24.10;3.35;;;;;;;5.31;100.00;100071.44;5221855;28;20056;-81
2022/02/22 02:13:16;;;;;;;26.33;3.10;;;;;;;5.28;100.00;100071.50;5221701;28;20506;-81
2022/02/22 02:15:47;;;;;;;23.10;3.00;;;;;;;5.23;100.00;100079.38;5228829;28;20057;-81
2022/02/22 02:18:17;;;;;;;24.67;2.88;;;;;;;5.22;100.00;100085.47;5231011;28;20024;-81
2022/02/22 02:20:48;;;;;;;23.70;2.50;;;;;;;5.23;100.00;100094.94;5224181;28;20017;-81
2022/02/22 02:23:18;;;;;;;18.65;2.83;;;;;;;5.29;100.00;100112.06;5224773;28;20490;-81
2022/02/22 02:25:48;;;;;;;19.55;2.80;;;;;;;5.29;100.00;100112.91;5224883;28;20052;-81
2022/02/22 02:28:19;;;;;;;15.85;2.80;;;;;;;5.17;100.00;100118.34;5223488;28;20442;-81
2022/02/22 02:30:49;;;;;;;23.17;2.85;;;;;;;5.12;100.00;100130.56;5223818;28;20021;-81
2022/02/22 02:33:20;;;;;;;17.83;2.92;;;;;;;5.14;100.00;100136.53;5223084;28;20028;-81
2022/02/22 02:35:50;;;;;;;16.33;2.63;;;;;;;5.09;100.00;100128.03;5223720;28;20029;-81
2022/02/22 02:38:20;;;;;;;15.70;1.92;;;;;;;5.05;100.00;100135.88;5223549;28;20411;-81
2022/02/22 02:40:50;;;;;;;12.77;1.63;;;;;;;4.90;100.00;100139.66;5223148;28;20021;-81
2022/02/22 02:43:21;;;;;;;11.55;1.92;;;;;;;4.77;100.00;100135.59;5223953;28;20024;-81
2022/02/22 02:45:51;;;;;;;11.07;1.90;;;;;;;4.71;100.00;100140.03;5224643;28;20025;-81
2022/02/22 02:48:21;;;;;;;13.90;2.05;;;;;;;4.65;100.00;100151.34;5224572;28;20172;-81
2022/02/22 02:50:52;;;;;;;19.00;1.95;;;;;;;4.65;100.00;100151.34;5224343;28;20078;-81
2022/02/22 02:53:22;;;;;;;12.68;2.00;;;;;;;4.68;100.00;100153.91;5223574;28;20072;-81
2022/02/22 02:55:52;;;;;;;17.63;2.38;;;;;;;4.65;100.00;100145.31;5220094;28;20021;-81
2022/02/22 02:58:22;;;;;;;16.08;2.17;;;;;;;4.66;100.00;100142.69;5222687;28;20029;-81
2022/02/22 03:00:53;;;;;;;14.43;2.10;;;;;;;4.71;100.00;100164.19;5225070;28;20625;-81
2022/02/22 03:03:23;;;;;;;15.00;2.25;;;;;;;4.74;100.00;100168.44;5223797;28;20059;-81
2022/02/22 03:05:54;;;;;;;18.92;2.58;;;;;;;4.79;100.00;100171.81;5223723;28;20478;-81
2022/02/22 03:08:24;;;;;;;15.18;2.25;;;;;;;4.78;100.00;100170.94;5224027;28;20441;-81
2022/02/22 03:10:54;;;;;;;16.13;2.78;;;;;;;4.76;100.00;100180.47;5222514;28;20017;-81
2022/02/22 03:13:25;;;;;;;21.15;2.50;;;;;;;4.72;100.00;100178.81;5223564;28;20033;-81
2022/02/22 03:15:55;;;;;;;19.55;2.55;;;;;;;4.71;100.00;100187.47;5223864;28;20033;-81
2022/02/22 03:18:25;;;;;;;25.50;2.20;;;;;;;4.66;100.00;100178.91;5222628;28;20087;-81
2022/02/22 03:20:55;;;;;;;17.90;2.90;;;;;;;4.66;100.00;100196.19;5222890;28;20021;-81
2022/02/22 03:23:26;;;;;;;21.52;2.58;;;;;;;4.59;100.00;100199.75;5223015;28;20091;-81
2022/02/22 03:25:56;;;;;;;27.23;2.65;;;;;;;4.67;100.00;100206.50;5223938;28;20100;-81
2022/02/22 03:28:26;;;;;;;24.95;3.03;;;;;;;4.76;100.00;100196.00;5223672;28;20028;-81
2022/02/22 03:30:57;;;;;;;26.48;2.95;;;;;;;4.81;100.00;100207.09;5223096;28;20033;-81
2022/02/22 03:33:28;;;;;;;26.42;3.42;;;;;;;4.82;100.00;100219.16;5223771;28;20398;-81
2022/02/22 03:35:59;;;;;;;20.67;3.25;;;;;;;4.87;100.00;100214.78;5223250;28;20024;-81
2022/02/22 03:38:29;;;;;;;24.88;2.83;;;;;;;4.88;100.00;100200.97;5221004;28;20025;-81
2022/02/22 03:41:02;;;;;;;24.80;3.13;;;;;;;4.86;100.00;100212.22;5222708;28;20490;-81
2022/02/22 03:43:32;;;;;;;17.63;3.00;;;;;;;4.87;100.00;100219.09;5223920;28;20051;-81
2022/02/22 03:46:03;;;;;;;24.67;3.03;;;;;;;4.89;100.00;100223.38;5223348;28;20470;-81
2022/02/22 03:48:33;;;;;;;22.02;2.92;;;;;;;4.94;100.00;100224.13;5225758;28;20029;-81
2022/02/22 03:51:03;;;;;;;28.63;3.28;;;;;;;4.92;100.00;100241.44;5226007;28;20391;-81
2022/02/22 03:53:34;;;;;;;19.38;3.08;;;;;;;4.91;100.00;100234.53;5226700;28;20032;-81
2022/02/22 03:56:04;;;;;;;19.27;2.40;;;;;;;4.90;100.00;100245.78;5228888;28;20036;-81
2022/02/22 03:58:34;;;;;;;16.38;2.50;;;;;;;4.88;100.00;100263.09;5228992;28;20102;-81
2022/02/22 04:01:05;;;;;;;13.80;2.10;;;;;;;4.81;100.00;100258.88;5229243;28;20048;-81
2022/02/22 04:03:36;;;;;;;22.80;2.90;;;;;;;4.77;100.00;100262.41;5226858;28;20064;-81
2022/02/22 04:06:06;;;;;;;18.70;3.10;;;;;;;4.74;100.00;100272.81;5228215;28;20375;-81
2022/02/22 04:08:36;;;;;;;21.50;3.03;;;;;;;4.71;100.00;100278.06;5229040;28;20060;-81
2022/02/22 04:11:07;;;;;;;22.15;2.85;;;;;;;4.66;100.00;100279.00;5228345;28;20047;-81
2022/02/22 04:13:37;;;;;;;25.73;3.63;;;;;;;4.63;100.00;100281.66;5227808;28;20093;-81
2022/02/22 04:16:07;;;;;;;19.92;3.22;;;;;;;4.57;100.00;100284.31;5223178;28;20020;-81
2022/02/22 04:18:37;;;;;;;20.50;2.78;;;;;;;4.53;100.00;100288.72;5224248;28;20064;-81
2022/02/22 04:21:08;;;;;;;27.77;3.60;;;;;;;4.56;100.00;100293.81;5224098;28;20036;-81
2022/02/22 04:23:38;;;;;;;18.50;2.33;;;;;;;4.62;100.00;100305.81;5222261;28;20033;-81
2022/02/22 04:26:08;;;;;;;21.23;2.83;;;;;;;4.63;100.00;100300.59;5223564;28;20037;-81
2022/02/22 04:28:39;;;;;;;21.27;2.90;;;;;;;4.63;100.00;100303.19;5221592;28;20056;-81
2022/02/22 04:31:09;;;;;;;19.02;2.92;;;;;;;4.59;100.00;100304.13;5224082;28;20407;-81
2022/02/22 04:33:39;;;;;;;21.30;2.90;;;;;;;4.59;100.00;100317.06;5222170;28;20025;-81
2022/02/22 04:36:10;;;;;;;24.92;2.75;;;;;;;4.56;100.00;100314.53;5223891;28;20035;-81
2022/02/22 04:38:40;;;;;;;18.23;2.40;;;;;;;4.41;100.00;100319.94;5223908;28;20406;-81
2022/02/22 04:41:10;;;;;;;19.35;3.03;;;;;;;4.46;100.00;100314.69;5220631;28;20024;-81
2022/02/22 04:43:40;;;;;;;15.75;2.60;;;;;;;4.41;100.00;100319.94;5223412;28;20283;-81
2022/02/22 04:46:11;;;;;;;17.48;2.85;;;;;;;4.34;100.00;100335.56;5222777;28;20079;-81
2022/02/22 04:48:41;;;;;;;28.13;2.92;;;;;;;4.31;100.00;100341.63;5223506;28;20037;-81
2022/02/22 04:51:12;;;;;;;20.02;3.00;;;;;;;4.28;100.00;100328.75;5223244;28;20546;-81
2022/02/22 04:53:42;;;;;;;18.42;2.70;;;;;;;4.25;100.00;100339.13;5223078;28;20060;-81
2022/02/22 04:56:13;;;;;;;23.63;3.20;;;;;;;4.22;100.00;100341.75;5223131;28;20079;-81
2022/02/22 04:58:43;;;;;;;21.65;2.67;;;;;;;4.18;100.00;100358.22;5220428;28;20060;-81
2022/02/22 05:01:14;;;;;;;19.73;3.00;;;;;;;4.25;100.00;100359.81;5222352;28;20253;-81
2022/02/22 05:03:44;;;;;;;25.23;3.05;;;;;;;4.28;100.00;100361.53;5221952;28;20035;-81
2022/02/22 05:06:14;;;;;;;24.23;3.03;;;;;;;4.25;100.00;100358.94;5221856;28;20226;-81
2022/02/22 05:08:45;;;;;;;25.15;3.05;;;;;;;4.24;100.00;100365.88;5222828;28;20033;-81
2022/02/22 05:11:15;;;;;;;20.48;3.30;;;;;;;4.27;100.00;100365.81;5222485;28;20032;-81
2022/02/22 05:13:45;;;;;;;34.08;9.07;;;;;;;4.24;100.00;100367.59;5222305;28;20441;-81
2022/02/22 05:16:16;;;;;;;22.70;3.10;;;;;;;4.19;100.00;100384.91;5225249;28;20063;-81
2022/02/22 05:18:46;;;;;;;27.40;3.30;;;;;;;4.20;100.00;100384.03;5227352;28;20040;-81
2022/02/22 05:21:16;;;;;;;22.50;3.15;;;;;;;4.19;100.00;100378.03;5223947;28;20020;-81
2022/02/22 05:23:47;;;;;;;29.23;3.05;;;;;;;4.19;100.00;100382.31;5222629;28;20370;-81
2022/02/22 05:26:17;;;;;;;18.17;2.72;;;;;;;4.24;100.00;100386.56;5222490;28;20501;-81
2022/02/22 05:28:47;;;;;;;22.27;2.90;;;;;;;4.18;100.00;100389.25;5222904;28;20307;-81
2022/02/22 05:31:18;;;;;;;22.45;2.92;;;;;;;4.22;100.00;100388.31;5222518;28;20033;-81
2022/02/22 05:33:49;;;;;;;26.13;3.45;;;;;;;4.18;100.00;100391.81;5222055;28;20425;-81
2022/02/22 05:36:20;;;;;;;26.42;3.35;;;;;;;4.16;100.00;100395.28;5222859;28;20049;-81
2022/02/22 05:38:50;;;;;;;25.95;3.05;;;;;;;4.10;100.00;100393.63;5223912;28;20549;-81
2022/02/22 05:41:20;;;;;;;26.60;3.50;;;;;;;4.13;100.00;100393.59;5222663;28;20112;-81
2022/02/22 05:43:51;;;;;;;23.98;2.85;;;;;;;4.11;100.00;100394.50;5222487;28;20517;-81
2022/02/22 05:46:21;;;;;;;26.75;2.88;;;;;;;4.01;100.00;100401.53;5228742;28;20478;-81
2022/02/22 05:48:52;;;;;;;24.02;3.22;;;;;;;4.08;100.00;100403.16;5225064;28;20029;-81
2022/02/22 05:51:22;;;;;;;24.48;3.30;;;;;;;4.08;100.00;100400.56;5227981;28;20021;-81
2022/02/22 05:53:52;;;;;;;20.75;3.28;;;;;;;4.05;100.00;100408.34;5223119;28;20520;-81
2022/02/22 05:56:23;;;;;;;20.13;3.35;;;;;;;4.04;100.00;100416.13;5224772;28;20029;-81
2022/02/22 05:58:53;;;;;;;27.52;3.28;;;;;;;4.05;100.00;100423.88;5223669;28;20033;-81
2022/02/22 06:01:23;;;;;;;19.15;3.15;;;;;;;4.08;100.00;100416.06;5227030;28;20060;-79
2022/02/22 06:03:53;;;;;;;24.27;2.92;;;;;;;4.02;100.00;100429.09;5222433;28;20017;-79
2022/02/22 06:06:24;;;;;;;24.75;3.42;;;;;;;3.96;100.00;100421.38;5224308;28;20040;-79
2022/02/22 06:08:54;;;;;;;23.80;3.15;;;;;;;3.99;100.00;100436.84;5224149;28;20250;-79
2022/02/22 06:11:24;;;;;;;21.73;3.42;;;;;;;3.89;100.00;100437.84;5229458;28;20028;-78
2022/02/22 06:13:54;;;;;;;23.30;2.97;;;;;;;3.93;100.00;100447.25;5225847;28;20020;-79
2022/02/22 06:16:25;;;;;;;17.50;2.92;;;;;;;3.93;100.00;100447.25;5223681;28;20060;-79
2022/02/22 06:18:56;;;;;;;22.33;3.28;;;;;;;3.93;100.00;100449.00;5225175;28;20426;-78
2022/02/22 06:21:26;;;;;;;16.48;2.47;;;;;;;3.99;100.00;100457.53;5221097;28;20021;-78
2022/02/22 06:23:57;;;;;;;23.17;2.70;;;;;;;3.95;100.00;100453.28;5221358;28;20187;-79
2022/02/22 06:26:27;;;;;;;22.83;3.03;;;;;;;3.94;100.00;100448.13;5220688;28;20041;-79
2022/02/22 06:28:57;;;;;;;17.45;3.08;;;;;;;3.94;100.00;100464.50;5223115;28;20032;-80
2022/02/22 06:31:27;;;;;;;23.42;3.13;;;;;;;3.96;100.00;100470.50;5223521;28;20033;-79
2022/02/22 06:33:58;;;;;;;24.58;3.17;;;;;;;3.95;100.00;100468.78;5220146;28;20025;-80
2022/02/22 06:36:28;;;;;;;24.63;3.17;;;;;;;4.06;100.00;100472.13;5220556;28;20056;-79
2022/02/22 06:38:59;;;;;;;24.67;3.50;;;;;;;4.06;100.00;100485.03;5219765;28;20036;-80
2022/02/22 06:41:29;;;;;;;20.30;2.85;;;;;;;4.12;100.00;100482.38;5223276;28;20060;-80
2022/02/22 06:43:59;;;;;;;11.18;2.22;;;;;;;4.19;100.00;100486.63;5221539;28;20097;-80
2022/02/22 06:46:30;;;;;;;22.60;2.95;;;;;;;4.29;100.00;100493.38;5222668;28;20457;-79
2022/02/22 06:49:00;;;;;;;26.67;2.95;;;;;;;4.42;100.00;100504.44;5232333;28;20089;-80
2022/02/22 06:51:30;;;;;;;25.38;3.10;;;;;;;4.33;100.00;100510.56;5223966;28;20028;-80
2022/02/22 06:54:01;;;;;;;17.42;2.85;;;;;;;4.39;100.00;100502.75;5225825;28;20615;-80
2022/02/22 06:56:31;;;;;;;23.67;3.40;;;;;;;4.42;100.00;100507.91;5219456;28;20136;-80
2022/02/22 06:59:01;;;;;;;23.38;3.15;;;;;;;4.48;100.00;100512.97;5229280;28;20067;-79
2022/02/22 07:01:31;;;;;;;17.05;2.70;;;;;;;4.41;100.00;100518.25;5225264;28;20021;-80
2022/02/22 07:04:02;;;;;;;18.45;3.15;;;;;;;4.49;100.00;100522.47;5230933;28;20031;-79
2022/02/22 07:06:33;;;;;;;22.67;3.55;;;;;;;4.51;100.00;100533.66;5220427;28;20060;-79
2022/02/22 07:09:03;;;;;;;27.48;3.38;;;;;;;4.59;100.00;100531.84;5220792;28;20027;-79
2022/02/22 07:11:33;;;;;;;23.58;3.83;;;;;;;4.68;100.00;100528.28;5220609;28;20444;-79
2022/02/22 07:14:03;;;;;;;20.25;2.90;;;;;;;4.62;100.00;100536.97;5220454;28;20037;-79
2022/02/22 07:16:34;;;;;;;17.90;3.22;;;;;;;4.75;100.00;100533.34;5220199;28;20120;-79
2022/02/22 07:19:04;;;;;;;27.27;3.53;;;;;;;4.74;100.00;100536.81;5221297;28;20112;-79
2022/02/22 07:21:34;;;;;;;15.75;2.30;;;;;;;4.72;100.00;100551.50;5219555;28;20434;-79
2022/02/22 07:24:05;;;;;;;34.78;4.65;;;;;;;4.80;100.00;100544.50;5220363;28;20035;-79
2022/02/22 07:26:35;;;;;;;25.73;3.85;;;;;;;4.69;100.00;100543.78;5220756;28;20032;-79
2022/02/22 07:29:05;;;;;;;20.27;2.55;;;;;;;4.89;100.00;100562.50;5224707;28;20033;-79
2022/02/22 07:31:35;;;;;;;24.42;3.47;;;;;;;5.23;100.00;100574.13;5226186;28;20045;-79
2022/02/22 07:34:06;;;;;;;25.42;3.75;;;;;;;5.58;100.00;100575.28;5224275;28;20033;-79
2022/02/22 07:36:36;;;;;;;32.40;3.80;;;;;;;5.53;98.55;100577.13;5224787;28;20065;-80
2022/02/22 07:39:08;;;;;;;24.70;3.72;;;;;;;5.96;96.58;100577.31;5224933;28;20043;-80
2022/02/22 07:41:38;;;;;;;27.75;3.70;;;;;;;5.85;95.67;100594.78;5224035;28;20025;-79
2022/02/22 07:44:08;;;;;;;24.52;3.40;;;;;;;6.52;94.39;100590.97;5225611;28;20021;-79
2022/02/22 07:46:39;;;;;;;24.20;3.88;;;;;;;6.32;93.13;100593.09;5225300;28;20033;-80
2022/02/22 07:49:10;;;;;;;33.17;3.35;;;;;;;6.49;93.78;100597.97;5224776;28;20287;-79
2022/02/22 07:51:40;;;;;;;19.92;3.42;;;;;;;6.79;91.30;100605.16;5230904;28;20031;-80
2022/02/22 07:54:11;;;;;;;22.98;3.58;;;;;;;6.81;89.10;100598.19;5225006;28;20037;-80
2022/02/22 07:56:41;;;;;;;25.92;3.83;;;;;;;7.04;90.87;100598.56;5225283;28;21437;-80
2022/02/22 07:59:11;;;;;;;19.38;2.85;;;;;;;8.23;84.09;100603.56;5224743;28;20476;-80
2022/02/22 08:01:42;;;;;;;18.55;3.22;;;;;;;7.33;87.50;100608.31;5224221;28;20051;-80
2022/02/22 08:04:12;;;;;;;19.92;3.03;;;;;;;7.92;85.46;100613.00;5223894;28;20108;-80
2022/02/22 08:06:42;;;;;;;17.88;2.90;;;;;;;8.30;82.65;100609.47;5224539;28;20115;-80
2022/02/22 08:09:12;;;;;;;16.77;3.10;;;;;;;8.72;82.29;100613.53;5224668;28;20025;-80
2022/02/22 08:11:43;;;;;;;26.88;3.58;;;;;;;9.39;78.24;100617.63;5224390;28;20121;-80
2022/02/22 08:14:13;;;;;;;24.92;4.32;;;;;;;9.27;78.18;100619.72;5223690;28;20028;-80
2022/02/22 08:16:44;;;;;;;18.83;2.70;;;;;;;9.04;78.36;100635.19;5224054;28;20025;-80
2022/02/22 08:19:14;;;;;;;18.30;3.08;;;;;;;8.61;80.73;100624.25;5224936;28;20063;-80
2022/02/22 08:21:44;;;;;;;22.80;3.33;;;;;;;8.60;82.75;100626.91;5224305;28;20025;-80
2022/02/22 08:24:15;;;;;;;19.10;3.60;;;;;;;9.15;79.68;100627.94;5225309;28;20078;-80
2022/02/22 08:26:45;;;;;;;16.52;2.90;;;;;;;7.63;85.65;100641.44;5224677;28;20037;-80
2022/02/22 08:29:16;;;;;;;26.92;3.75;;;;;;;7.99;85.40;100640.59;5225013;28;20036;-80
2022/02/22 08:31:47;;;;;;;23.70;3.30;;;;;;;7.89;85.13;100639.06;5224477;28;20036;-79
2022/02/22 08:34:18;;;;;;;19.55;3.17;;;;;;;7.41;87.51;100655.81;5225115;28;20383;-79
2022/02/22 08:36:48;;;;;;;19.02;2.78;;;;;;;7.09;88.79;100664.31;5224519;28;20024;-79
2022/02/22 08:39:19;;;;;;;19.98;3.33;;;;;;;7.95;86.92;100645.88;5223682;28;20244;-79
2022/02/22 08:41:50;;;;;;;27.92;4.18;;;;;;;8.48;82.59;100661.06;5223730;28;20032;-79
2022/02/22 08:44:20;;;;;;;17.90;3.20;;;;;;;9.86;78.88;100648.31;5222229;28;20116;-79
2022/02/22 08:46:51;;;;;;;19.38;3.08;;;;;;;9.28;80.12;100657.97;5225489;28;20538;-79
2022/02/22 08:49:22;;;;;;;23.98;3.58;;;;;;;8.46;83.45;100668.06;5218948;28;20117;-79
2022/02/22 08:51:52;;;;;;;19.40;3.20;;;;;;;7.65;86.81;100670.88;5223408;28;20095;-79
2022/02/22 08:54:22;;;;;;;21.02;3.65;;;;;;;7.08;89.50;100693.78;5223023;28;20406;-79
2022/02/22 08:56:52;;;;;;;19.13;3.00;;;;;;;6.32;94.91;100675.28;5222826;28;20029;-79
2022/02/22 08:59:23;;;;;;;18.90;3.17;;;;;;;6.20;97.95;100683.25;5220344;28;20568;-79
2022/02/22 09:01:53;;;;;;;26.30;4.65;;;;;;;6.13;100.00;100681.66;5221536;28;20474;-79
2022/02/22 09:04:23;;;;;;;25.88;3.33;;;;;;;6.02;100.00;100675.75;5223248;28;20048;-79
2022/02/22 09:06:54;;;;;;;17.80;3.97;;;;;;;6.08;100.00;100678.28;5222835;28;20108;-79
2022/02/22 09:09:24;;;;;;;24.13;4.63;;;;;;;6.00;100.00;100688.78;5223181;28;20380;-79
2022/02/22 09:11:54;;;;;;;33.55;5.05;;;;;;;6.49;100.00;100688.81;5225443;28;20028;-79
2022/02/22 09:14:24;;;;;;;25.48;3.85;;;;;;;6.64;98.69;100678.16;5222830;28;20079;-79
2022/02/22 09:16:55;;;;;;;24.38;3.90;;;;;;;6.83;97.22;100675.22;5223382;28;20206;-79
2022/02/22 09:19:25;;;;;;;31.95;4.78;;;;;;;7.15;93.96;100666.78;5222524;28;20036;-79
2022/02/22 09:21:55;;;;;;;22.50;3.42;;;;;;;6.96;94.63;100670.63;5222457;28;20082;-79
2022/02/22 09:24:26;;;;;;;23.15;4.18;;;;;;;7.31;94.30;100666.41;5222427;28;20040;-79
2022/02/22 09:26:56;;;;;;;20.45;2.95;;;;;;;6.84;95.31;100663.06;5221944;28;20040;-79
2022/02/22 09:29:26;;;;;;;22.42;3.20;;;;;;;6.97;94.25;100660.19;5221156;28;20025;-79
2022/02/22 09:31:56;;;;;;;24.60;4.38;;;;;;;7.21;93.58;100666.63;5221874;28;20079;-79
2022/02/22 09:34:27;;;;;;;32.22;4.43;;;;;;;7.46;93.49;100664.38;5222475;28;20108;-79
2022/02/22 09:37:02;;;;;;;27.30;3.67;;;;;;;7.54;92.35;100665.03;5223273;28;20494;-79
2022/02/22 09:39:34;;;;;;;26.00;3.10;;;;;;;7.69;91.75;100676.88;5221345;28;20039;-80
2022/02/22 09:42:08;;;;;;;21.42;3.63;;;;;;;8.21;91.08;100666.97;5221756;28;20077;-80
2022/02/22 09:44:40;;;;;;;23.52;3.50;;;;;;;8.40;88.75;100671.69;5222868;28;20426;-79
2022/02/22 09:47:10;;;;;;;29.60;3.25;;;;;;;7.99;89.79;100676.16;5221760;28;20067;-79
2022/02/22 09:49:41;;;;;;;21.98;3.05;;;;;;;7.94;90.52;100678.00;5222000;28;20036;-79
2022/02/22 09:52:11;;;;;;;22.83;3.63;;;;;;;8.06;90.21;100675.97;5219303;28;20075;-79
2022/02/22 09:54:42;;;;;;;15.32;2.85;;;;;;;8.20;88.66;100681.72;5222678;28;20039;-79
2022/02/22 09:57:12;;;;;;;25.15;3.47;;;;;;;7.90;89.33;100682.41;5223303;28;20029;-79
2022/02/22 09:59:43;;;;;;;16.00;2.92;;;;;;;7.52;89.29;100682.41;5221646;28;20033;-79
2022/02/22 10:02:13;;;;;;;23.88;3.72;;;;;;;7.67;90.09;100670.84;5221518;28;20029;-79
2022/02/22 10:04:49;;;;;;;27.40;3.30;;;;;;;7.68;89.32;100664.75;5221387;28;20154;-79
2022/02/22 10:07:19;;;;;;;19.00;3.65;;;;;;;7.61;90.57;100669.22;5221449;28;20032;-79
2022/02/22 10:09:51;;;;;;;16.00;3.33;;;;;;;7.78;91.23;100667.13;5221500;28;20086;-79
2022/02/22 10:12:36;;;;;;;20.70;3.03;;;;;;;7.77;90.22;100675.81;5222375;28;20606;-79
2022/02/22 10:15:09;;;;;;;20.20;2.67;;;;;;;8.00;89.46;100667.44;5219234;28;20525;-79
2022/02/22 10:17:41;;;;;;;21.00;3.35;;;;;;;8.11;88.55;100666.31;5221007;28;20059;-79
2022/02/22 10:20:11;;;;;;;18.88;2.85;;;;;;;8.21;89.11;100686.03;5219757;28;20020;-79
2022/02/22 10:22:53;;;;;;;18.42;2.58;;;;;;;7.67;87.87;100676.88;5221728;28;20107;-80
2022/02/22 10:25:25;;;;;;;20.92;2.72;;;;;;;7.79;89.92;100670.56;5222558;28;20080;-80
2022/02/22 10:27:58;;;;;;;19.20;3.15;;;;;;;7.74;89.32;100665.44;5219182;28;20037;-80
2022/02/22 10:30:39;;;;;;;23.83;3.17;;;;;;;7.48;88.16;100659.97;5221872;28;20029;-80
2022/02/22 10:33:15;;;;;;;23.75;2.85;;;;;;;7.38;87.58;100673.22;5221300;28;20071;-80
2022/02/22 10:36:06;;;;;;;21.05;2.67;;;;;;;7.55;86.55;100669.34;5220858;28;20032;-79
2022/02/22 10:38:36;;;;;;;24.25;2.75;;;;;;;7.95;86.29;100661.50;5219175;28;20033;-80
2022/02/22 10:41:15;;;;;;;22.00;2.95;;;;;;;8.06;86.66;100657.75;5222028;28;20175;-79
2022/02/22 10:43:57;;;;;;;20.48;3.08;;;;;;;8.42;87.20;100659.47;5220729;28;20140;-81
2022/02/22 10:46:31;;;;;;;17.77;2.65;;;;;;;8.71;85.38;100651.75;5218669;28;20036;-79
2022/02/22 10:49:08;;;;;;;16.15;3.10;;;;;;;8.64;83.71;100652.81;5221590;28;20025;-79
2022/02/22 10:51:42;;;;;;;16.52;3.30;;;;;;;8.21;84.17;100661.78;5221403;28;20387;-80
2022/02/22 10:54:19;;;;;;;27.10;6.18;;;;;;;8.11;84.08;100655.91;5220794;28;20115;-80
2022/02/22 10:56:50;;;;;;;20.80;5.90;;;;;;;8.06;85.03;100660.34;5220858;28;20048;-80
2022/02/22 10:59:25;;;;;;;19.05;2.53;;;;;;;8.05;84.17;100663.84;5219931;28;20120;-79
2022/02/22 11:01:58;;;;;;;17.48;2.88;;;;;;;8.06;85.20;100668.16;5220719;28;20067;-81
2022/02/22 11:04:28;;;;;;;18.23;3.17;;;;;;;7.90;86.06;100679.81;5225367;28;20040;-80
2022/02/22 11:06:59;;;;;;;20.30;2.70;;;;;;;8.17;85.52;100683.50;5225466;28;20020;-79
2022/02/22 11:09:29;;;;;;;20.33;2.92;;;;;;;8.17;85.47;100680.91;5226542;28;20032;-80
2022/02/22 11:12:07;;;;;;;17.77;2.47;;;;;;;8.24;86.17;100687.72;5224801;28;20102;-80
2022/02/22 11:14:37;;;;;;;27.15;2.90;;;;;;;8.09;83.76;100688.06;5225666;28;20059;-80
2022/02/22 11:17:25;;;;;;;16.80;2.42;;;;;;;7.91;84.11;100694.53;5225619;28;20455;-80
2022/02/22 11:19:56;;;;;;;19.30;2.42;;;;;;;7.66;84.06;100697.75;5224859;28;20039;-83
2022/02/22 11:22:30;;;;;;;15.75;2.50;;;;;;;7.63;84.21;100698.66;5234569;28;20475;-83
2022/02/22 11:25:01;;;;;;;15.32;3.08;;;;;;;7.70;85.02;100702.81;5232276;28;20028;-82
2022/02/22 11:27:33;;;;;;;16.23;2.38;;;;;;;7.52;84.96;100700.63;5228893;28;20032;-81
2022/02/22 11:30:07;;;;;;;15.18;2.22;;;;;;;7.35;86.72;100692.31;5228955;28;20044;-81
2022/02/22 11:32:40;;;;;;;18.52;2.50;;;;;;;7.43;87.48;100703.44;5230939;28;20428;-81
2022/02/22 11:35:15;;;;;;;19.50;3.00;;;;;;;7.62;86.23;100701.28;5228972;28;20040;-82
2022/02/22 11:37:46;;;;;;;12.05;2.60;;;;;;;7.70;85.77;100695.03;5226454;28;20033;-82